createdAt,value
2022-08-12T00:00:45.070Z,1009.07
2022-08-12T00:06:04.468Z,1008.95
2022-08-12T00:10:53.283Z,1009.05
2022-08-12T00:15:57.451Z,1008.97
2022-08-12T00:21:01.622Z,1008.96
2022-08-12T00:26:22.395Z,1009.00
2022-08-12T00:31:09.916Z,1009.03
2022-08-12T00:36:30.650Z,1008.97
2022-08-12T00:41:18.264Z,1009.03
2022-08-12T00:46:20.502Z,1008.92
2022-08-12T00:51:24.661Z,1009.00
2022-08-12T00:56:26.940Z,1009.02
2022-08-12T01:01:31.175Z,1009.03
2022-08-12T01:06:35.238Z,1009.01
2022-08-12T01:11:39.404Z,1008.96
2022-08-12T01:16:43.584Z,1008.97
2022-08-12T01:21:47.760Z,1008.99
2022-08-12T01:26:51.861Z,1008.96
2022-08-12T01:31:56.042Z,1008.96
2022-08-12T01:37:00.199Z,1008.94
2022-08-12T01:42:04.375Z,1008.97
2022-08-12T01:47:08.541Z,1008.95
2022-08-12T01:52:12.711Z,1009.02
2022-08-12T01:57:16.834Z,1008.96
2022-08-12T02:02:21.044Z,1008.92
2022-08-12T02:07:25.153Z,1008.92
2022-08-12T02:12:31.285Z,1008.95
2022-08-12T02:17:56.009Z,1008.94
2022-08-12T02:22:37.671Z,1008.95
2022-08-12T02:27:41.793Z,1008.94
2022-08-12T02:32:45.955Z,1009.00
2022-08-12T02:37:50.146Z,1008.96
2022-08-12T02:42:52.408Z,1009.02
2022-08-12T02:48:00.832Z,1009.10
2022-08-12T02:52:58.816Z,1009.00
2022-08-12T02:58:04.296Z,1009.07
2022-08-12T03:03:07.159Z,1009.00
2022-08-12T03:08:11.297Z,1009.08
2022-08-12T03:13:15.444Z,1009.00
2022-08-12T03:18:27.029Z,1008.98
2022-08-12T03:23:29.984Z,1008.95
2022-08-12T03:28:27.946Z,1009.07
2022-08-12T03:33:32.122Z,1008.96
2022-08-12T03:38:36.253Z,1009.00
2022-08-12T03:43:40.445Z,1009.00
2022-08-12T03:48:44.575Z,1009.03
2022-08-12T03:53:48.740Z,1009.01
2022-08-12T03:58:53.273Z,1009.07
2022-08-12T04:03:57.081Z,1009.13
2022-08-12T04:09:01.236Z,1009.08
2022-08-12T04:14:05.354Z,1009.14
2022-08-12T04:19:09.510Z,1009.10
2022-08-12T04:24:13.696Z,1009.09
2022-08-12T04:29:17.844Z,1009.13
2022-08-12T04:34:21.987Z,1009.19
2022-08-12T04:39:24.352Z,1009.18
2022-08-12T04:44:28.463Z,1009.19
2022-08-12T04:49:30.709Z,1009.14
2022-08-12T04:54:34.876Z,1009.07
2022-08-12T04:59:46.527Z,1009.19
2022-08-12T05:04:43.203Z,1009.15
2022-08-12T05:10:00.160Z,1009.10
2022-08-12T05:14:51.508Z,1009.06
2022-08-12T05:19:57.347Z,1009.18
2022-08-12T05:24:59.836Z,1009.15
2022-08-12T05:30:07.324Z,1009.14
2022-08-12T05:35:08.227Z,1009.11
2022-08-12T05:40:12.345Z,1009.21
2022-08-12T05:45:16.485Z,1009.26
2022-08-12T05:50:20.639Z,1009.22
2022-08-12T05:55:29.382Z,1009.20
2022-08-12T06:00:29.029Z,1009.28
2022-08-12T06:05:33.150Z,1009.27
2022-08-12T06:10:37.248Z,1009.24
2022-08-12T06:15:41.472Z,1009.27
2022-08-12T06:20:45.804Z,1009.29
2022-08-12T06:25:49.758Z,1009.27
2022-08-12T06:31:14.965Z,1009.29
2022-08-12T06:35:58.970Z,1009.27
2022-08-12T06:41:00.398Z,1009.30
2022-08-12T06:46:02.640Z,1009.31
2022-08-12T06:51:06.769Z,1009.17
2022-08-12T06:56:12.632Z,1009.24
2022-08-12T07:01:15.173Z,1009.22
2022-08-12T07:06:19.291Z,1009.29
2022-08-12T07:11:23.416Z,1009.26
2022-08-12T07:16:27.566Z,1009.32
2022-08-12T07:22:00.537Z,1009.24
2022-08-12T07:26:36.000Z,1009.29
2022-08-12T07:31:40.097Z,1009.36
2022-08-12T07:36:44.228Z,1009.40
2022-08-12T07:41:48.358Z,1009.39
2022-08-12T07:46:52.522Z,1009.49
2022-08-12T07:51:56.696Z,1009.56
2022-08-12T07:57:00.850Z,1009.64
2022-08-12T08:02:05.046Z,1009.78
2022-08-12T08:07:09.204Z,1009.81
2022-08-12T08:12:19.709Z,1009.71
2022-08-12T08:17:17.493Z,1009.86
2022-08-12T08:22:33.520Z,1009.87
2022-08-12T08:27:25.830Z,1009.81
2022-08-12T08:32:28.070Z,1009.80
2022-08-12T08:37:33.412Z,1009.77
2022-08-12T08:42:36.383Z,1009.69
2022-08-12T08:47:40.552Z,1009.67
2022-08-12T08:52:44.719Z,1009.62
2022-08-12T08:57:48.865Z,1009.62
2022-08-12T09:02:59.083Z,1009.68
2022-08-12T09:08:08.813Z,1009.72
2022-08-12T09:13:01.959Z,1009.68
2022-08-12T09:18:08.361Z,1009.53
2022-08-12T09:23:59.195Z,1009.65
2022-08-12T09:28:13.839Z,1009.56
2022-08-12T09:34:25.499Z,1009.54
2022-08-12T09:38:28.230Z,1009.50
2022-08-12T09:43:26.850Z,1009.55
2022-08-12T09:48:35.282Z,1009.46
2022-08-12T09:53:38.832Z,1009.46
2022-08-12T09:58:57.990Z,1009.44
2022-08-12T10:03:55.468Z,1009.45
2022-08-12T10:08:52.517Z,1009.31
2022-08-12T10:13:51.335Z,1009.19
2022-08-12T10:18:53.832Z,1009.11
2022-08-12T10:23:57.691Z,1009.05
2022-08-12T10:29:03.323Z,1008.98
2022-08-12T10:34:23.840Z,1008.91
2022-08-12T10:40:00.095Z,1008.85
2022-08-12T10:44:17.549Z,1008.74
2022-08-12T10:50:07.063Z,1008.74
2022-08-12T10:54:26.121Z,1008.67
2022-08-12T11:00:31.497Z,1008.57
2022-08-12T11:04:39.402Z,1008.36
2022-08-12T11:09:56.185Z,1008.37
2022-08-12T11:14:49.952Z,1008.39
2022-08-12T11:19:43.445Z,1008.32
2022-08-12T11:24:51.121Z,1008.17
2022-08-12T11:30:05.270Z,1008.13
2022-08-12T11:34:59.186Z,1008.12
2022-08-12T11:40:00.101Z,1008.16
2022-08-12T11:45:05.102Z,1007.97
2022-08-12T11:50:08.345Z,1008.09
2022-08-12T11:55:14.880Z,1007.96
2022-08-12T12:05:18.941Z,1007.84
2022-08-12T12:10:23.156Z,1007.85
2022-08-12T12:15:40.623Z,1007.73
2022-08-12T12:20:30.608Z,1007.70
2022-08-12T12:25:59.719Z,1007.69
2022-08-12T12:30:35.998Z,1007.65
2022-08-12T12:36:06.575Z,1007.62
2022-08-12T12:40:43.814Z,1007.55
2022-08-12T12:45:46.682Z,1007.53
2022-08-12T12:50:51.437Z,1007.42
2022-08-12T12:55:54.848Z,1007.31
2022-08-12T13:01:04.842Z,1007.43
2022-08-12T13:06:03.199Z,1007.32
2022-08-12T13:11:07.565Z,1007.23
2022-08-12T13:16:14.487Z,1007.26
2022-08-12T13:21:32.828Z,1007.16
2022-08-12T13:26:19.811Z,1007.18
2022-08-12T13:31:24.916Z,1007.20
2022-08-12T13:36:28.167Z,1007.21
2022-08-12T13:41:32.328Z,1007.22
2022-08-12T13:46:36.480Z,1007.05
2022-08-12T13:51:41.443Z,1007.04
2022-08-12T13:56:49.947Z,1007.09
2022-08-12T14:01:48.978Z,1007.00
2022-08-12T14:06:59.317Z,1006.94
2022-08-12T14:11:59.585Z,1006.87
2022-08-12T14:17:01.413Z,1006.86
2022-08-12T14:22:04.652Z,1006.88
2022-08-12T14:27:08.718Z,1006.76
2022-08-12T14:32:16.650Z,1006.70
2022-08-12T14:37:55.483Z,1006.77
2022-08-12T14:42:16.561Z,1006.67
2022-08-12T14:47:20.734Z,1006.69
2022-08-12T14:52:55.484Z,1006.74
2022-08-12T14:57:35.510Z,1006.69
2022-08-12T15:02:33.191Z,1006.75
2022-08-12T15:07:48.846Z,1006.74
2022-08-12T15:12:41.582Z,1006.58
2022-08-12T15:17:45.664Z,1006.55
2022-08-12T15:22:53.652Z,1006.61
2022-08-12T15:28:05.201Z,1006.54
2022-08-12T15:32:58.197Z,1006.55
2022-08-12T15:38:10.074Z,1006.50
2022-08-12T15:43:08.188Z,1006.41
2022-08-12T15:48:16.866Z,1006.36
2022-08-12T15:53:15.520Z,1006.40
2022-08-12T15:58:17.078Z,1006.41
2022-08-12T16:03:25.761Z,1006.33
2022-08-12T16:08:27.169Z,1006.30
2022-08-12T16:13:34.342Z,1006.28
2022-08-12T16:18:31.797Z,1006.35
2022-08-12T16:23:52.266Z,1006.32
2022-08-12T16:28:40.154Z,1006.26
2022-08-12T16:33:59.186Z,1006.27
2022-08-12T16:38:48.455Z,1006.24
2022-08-12T16:43:52.602Z,1006.09
2022-08-12T16:48:56.789Z,1006.08
2022-08-12T16:54:00.934Z,1005.94
2022-08-12T16:59:16.165Z,1005.91
2022-08-12T17:04:09.488Z,1005.86
2022-08-12T17:09:17.844Z,1005.99
2022-08-12T17:14:17.607Z,1005.98
2022-08-12T17:20:12.187Z,1005.97
2022-08-12T17:24:30.530Z,1005.90
2022-08-12T17:30:00.215Z,1005.90
2022-08-12T17:34:34.249Z,1005.92
2022-08-12T17:40:12.631Z,1005.81
2022-08-12T17:44:40.635Z,1005.89
2022-08-12T17:50:03.353Z,1005.98
2022-08-12T17:54:47.088Z,1005.97
2022-08-12T17:59:51.486Z,1006.07
2022-08-12T18:05:09.777Z,1006.12
2022-08-12T18:09:59.538Z,1006.14
2022-08-12T18:15:08.734Z,1006.14
2022-08-12T18:20:12.563Z,1006.18
2022-08-12T18:26:12.212Z,1006.23
2022-08-12T18:30:21.016Z,1006.26
2022-08-12T18:35:20.355Z,1006.34
2022-08-12T18:40:24.497Z,1006.31
2022-08-12T18:45:31.603Z,1006.41
2022-08-12T18:50:49.466Z,1006.40
2022-08-12T18:55:37.153Z,1006.46
2022-08-12T19:00:41.204Z,1006.52
2022-08-12T19:05:53.521Z,1006.42
2022-08-12T19:10:50.221Z,1006.50
2022-08-12T19:15:54.011Z,1006.55
2022-08-12T19:20:58.255Z,1006.56
2022-08-12T19:26:02.938Z,1006.59
2022-08-12T19:31:06.092Z,1006.58
2022-08-12T19:36:25.358Z,1006.61
2022-08-12T19:41:12.775Z,1006.61
2022-08-12T19:46:16.695Z,1006.60
2022-08-12T19:51:24.331Z,1006.71
2022-08-12T19:56:25.203Z,1006.73
2022-08-12T20:01:27.246Z,1006.78
2022-08-12T20:06:34.364Z,1006.79
2022-08-12T20:12:13.518Z,1006.87
2022-08-12T20:16:52.133Z,1006.92
2022-08-12T20:26:48.250Z,1006.91
2022-08-12T20:31:52.192Z,1006.88
2022-08-12T20:36:57.374Z,1006.96
2022-08-12T20:42:00.544Z,1006.94
2022-08-12T20:47:04.704Z,1007.03
2022-08-12T20:52:08.815Z,1006.97
2022-08-12T20:57:13.000Z,1006.94
2022-08-12T21:02:17.339Z,1007.08
2022-08-12T21:07:23.521Z,1006.99
2022-08-12T21:12:30.943Z,1007.03
2022-08-12T21:18:01.004Z,1007.09
2022-08-12T21:22:33.845Z,1007.07
2022-08-12T21:27:59.299Z,1007.07
2022-08-12T21:32:42.096Z,1007.13
2022-08-12T21:37:53.037Z,1007.24
2022-08-12T21:42:48.543Z,1007.31
2022-08-12T21:47:53.299Z,1007.28
2022-08-12T21:52:56.860Z,1007.28
2022-08-12T21:58:03.444Z,1007.36
2022-08-12T22:03:03.336Z,1007.34
2022-08-12T22:08:07.457Z,1007.25
2022-08-12T22:14:07.746Z,1007.30
2022-08-12T22:18:17.342Z,1007.35
2022-08-12T22:23:28.537Z,1007.38
2022-08-12T22:28:24.648Z,1007.32
2022-08-12T22:38:32.564Z,1007.32
2022-08-12T22:43:36.589Z,1007.25
2022-08-12T22:48:50.364Z,1007.24
2022-08-12T22:53:44.872Z,1007.26
2022-08-12T22:58:49.046Z,1007.20
2022-08-12T23:03:53.876Z,1007.15
2022-08-12T23:08:57.354Z,1007.08
2022-08-12T23:14:01.586Z,1007.23
2022-08-12T23:19:10.919Z,1007.15
2022-08-12T23:24:10.934Z,1007.16
2022-08-12T23:29:29.811Z,1007.21
2022-08-12T23:34:18.333Z,1007.14
2022-08-12T23:40:14.085Z,1007.17
2022-08-12T23:44:31.586Z,1007.15
2022-08-12T23:49:56.345Z,1007.15
2022-08-12T23:54:43.970Z,1007.17
2022-08-12T23:59:43.563Z,1007.22
